Time;durP1;ratioP1;P1;durP2;ratioP2;P2;SDS_P1;SDS_P2;PMS_P1;PMS_P2;Temp;Humidity;BMP_temperature;BMP_pressure;BME280_temperature;BME280_humidity;BME280_pressure;Samples;Min_cycle;Max_cycle;Signal;HPM_P1;HPM_P2
2023/10/25 00:02:46;;;;;;;13.57;5.47;;;;;;;;;;6338856;28;20075;-63
2023/10/25 00:05:49;;;;;;;17.05;5.25;;;;;;;;;;6334144;28;20054;-63
2023/10/25 00:08:51;;;;;;;12.07;5.95;;;;;;;;;;6338675;28;20054;-63
2023/10/25 00:11:54;;;;;;;17.05;6.57;;;;;;;;;;6338604;28;20171;-63
2023/10/25 00:14:56;;;;;;;17.33;5.45;;;;;;;;;;6339015;28;20086;-63
2023/10/25 00:17:58;;;;;;;12.88;6.38;;;;;;;;;;6335271;28;20047;-63
2023/10/25 00:21:00;;;;;;;10.48;6.53;;;;;;;;;;6329663;28;20058;-63
2023/10/25 00:24:02;;;;;;;15.70;5.28;;;;;;;;;;6338082;28;20044;-63
2023/10/25 00:27:04;;;;;;;11.82;4.93;;;;;;;;;;6334411;28;20055;-63
2023/10/25 00:30:06;;;;;;;14.93;6.05;;;;;;;;;;6317096;28;20039;-63
2023/10/25 00:33:09;;;;;;;11.57;5.95;;;;;;;;;;6338710;28;20048;-64
2023/10/25 00:36:11;;;;;;;13.85;5.15;;;;;;;;;;6333493;28;20043;-64
2023/10/25 00:39:13;;;;;;;13.25;8.68;;;;;;;;;;6319147;28;20044;-62
2023/10/25 00:42:15;;;;;;;15.95;4.97;;;;;;;;;;6330606;28;20135;-64
2023/10/25 00:45:17;;;;;;;11.85;5.60;;;;;;;;;;6323841;28;20541;-63
2023/10/25 00:48:19;;;;;;;11.07;5.28;;;;;;;;;;6337936;28;20132;-63
2023/10/25 00:51:22;;;;;;;12.02;5.47;;;;;;;;;;6304798;28;20044;-62
2023/10/25 00:54:25;;;;;;;19.30;6.03;;;;;;;;;;6323352;28;20044;-64
2023/10/25 00:57:27;;;;;;;16.05;4.85;;;;;;;;;;6336496;28;20065;-63
2023/10/25 01:00:29;;;;;;;14.95;5.70;;;;;;;;;;6338235;28;20051;-63
2023/10/25 01:03:31;;;;;;;12.75;4.68;;;;;;;;;;6305549;28;20055;-63
2023/10/25 01:06:33;;;;;;;14.65;6.78;;;;;;;;;;6336959;28;20456;-63
2023/10/25 01:09:35;;;;;;;14.70;6.72;;;;;;;;;;6336131;28;20513;-63
2023/10/25 01:12:37;;;;;;;20.92;5.85;;;;;;;;;;6329810;27;20047;-62
2023/10/25 01:15:39;;;;;;;9.30;5.57;;;;;;;;;;6337837;28;20047;-63
2023/10/25 01:18:42;;;;;;;13.85;5.72;;;;;;;;;;6325595;28;20055;-64
2023/10/25 01:21:44;;;;;;;16.85;6.45;;;;;;;;;;6336728;28;20050;-63
2023/10/25 01:24:47;;;;;;;14.05;5.28;;;;;;;;;;6354545;27;20052;-63
2023/10/25 01:27:50;;;;;;;12.70;5.10;;;;;;;;;;6337153;28;20143;-63
2023/10/25 01:30:53;;;;;;;13.05;5.35;;;;;;;;;;6325074;28;20036;-63
2023/10/25 01:33:55;;;;;;;12.40;4.95;;;;;;;;;;6333470;28;20071;-63
2023/10/25 01:36:57;;;;;;;12.70;6.45;;;;;;;;;;6328338;28;20039;-63
2023/10/25 01:39:59;;;;;;;15.85;7.95;;;;;;;;;;6334635;28;20804;-63
2023/10/25 01:43:01;;;;;;;17.17;5.45;;;;;;;;;;6327925;28;20197;-65
2023/10/25 01:46:03;;;;;;;13.43;6.10;;;;;;;;;;6314453;28;20047;-64
2023/10/25 01:49:05;;;;;;;13.18;5.30;;;;;;;;;;6336195;28;20075;-67
2023/10/25 01:52:08;;;;;;;11.80;4.90;;;;;;;;;;6328109;28;20171;-64
2023/10/25 01:55:10;;;;;;;11.15;5.75;;;;;;;;;;6335970;28;20046;-64
2023/10/25 01:58:12;;;;;;;16.73;4.95;;;;;;;;;;6325259;28;20586;-64
2023/10/25 02:01:14;;;;;;;12.98;7.65;;;;;;;;;;6327064;28;20036;-63
2023/10/25 02:04:16;;;;;;;15.70;5.78;;;;;;;;;;6325880;28;20047;-63
2023/10/25 02:07:18;;;;;;;18.00;6.10;;;;;;;;;;6325849;28;20075;-63
2023/10/25 02:10:20;;;;;;;11.80;5.93;;;;;;;;;;6322322;28;20047;-63
2023/10/25 02:13:23;;;;;;;16.98;5.85;;;;;;;;;;6335763;28;20087;-64
2023/10/25 02:16:26;;;;;;;13.20;5.68;;;;;;;;;;6317258;28;20052;-63
2023/10/25 02:19:28;;;;;;;16.67;8.68;;;;;;;;;;6335600;28;20423;-62
2023/10/25 02:22:30;;;;;;;13.63;6.28;;;;;;;;;;6333942;28;20114;-62
2023/10/25 02:25:32;;;;;;;18.65;8.73;;;;;;;;;;6322607;28;20049;-63
2023/10/25 02:28:35;;;;;;;22.05;9.70;;;;;;;;;;6332339;28;20478;-62
2023/10/25 02:31:37;;;;;;;24.15;9.02;;;;;;;;;;6335912;28;21366;-63
2023/10/25 02:34:39;;;;;;;15.07;6.53;;;;;;;;;;6335536;28;20526;-62
2023/10/25 02:37:41;;;;;;;13.93;5.95;;;;;;;;;;6305991;28;20813;-62
2023/10/25 02:40:43;;;;;;;9.38;5.20;;;;;;;;;;6320126;28;20047;-62
2023/10/25 02:43:45;;;;;;;19.50;7.55;;;;;;;;;;6338923;28;20139;-63
2023/10/25 02:46:47;;;;;;;9.30;4.88;;;;;;;;;;6323209;28;20062;-60
2023/10/25 02:49:50;;;;;;;16.48;6.55;;;;;;;;;;6327066;28;20090;-62
2023/10/25 02:52:51;;;;;;;14.85;5.30;;;;;;;;;;6340456;28;20100;-63
2023/10/25 02:56:00;;;;;;;16.63;5.95;;;;;;;;;;6338568;28;20055;-62
2023/10/25 02:59:03;;;;;;;15.18;6.85;;;;;;;;;;6325393;28;20047;-63
2023/10/25 03:02:05;;;;;;;12.65;6.43;;;;;;;;;;6314979;28;20130;-63
2023/10/25 03:05:08;;;;;;;15.63;6.57;;;;;;;;;;6323566;28;20047;-62
2023/10/25 03:08:10;;;;;;;13.27;9.90;;;;;;;;;;6327225;28;20554;-63
2023/10/25 03:11:12;;;;;;;13.13;6.78;;;;;;;;;;6323955;28;20728;-62
2023/10/25 03:14:18;;;;;;;14.68;7.07;;;;;;;;;;6334799;28;20048;-63
2023/10/25 03:17:20;;;;;;;13.82;7.20;;;;;;;;;;6324907;28;20675;-62
2023/10/25 03:20:22;;;;;;;16.17;6.45;;;;;;;;;;6335282;28;20054;-63
2023/10/25 03:23:24;;;;;;;15.43;6.20;;;;;;;;;;6339181;28;20051;-63
2023/10/25 03:26:26;;;;;;;15.98;6.93;;;;;;;;;;6314980;28;20072;-63
2023/10/25 03:29:28;;;;;;;13.13;5.95;;;;;;;;;;6340558;28;20134;-63
2023/10/25 03:32:30;;;;;;;12.77;5.60;;;;;;;;;;6340621;28;20082;-62
2023/10/25 03:35:32;;;;;;;17.67;6.45;;;;;;;;;;6339724;28;20058;-62
2023/10/25 03:38:35;;;;;;;13.68;6.10;;;;;;;;;;6339601;28;20112;-62
2023/10/25 03:41:37;;;;;;;15.10;5.72;;;;;;;;;;6339084;28;20041;-62
2023/10/25 03:44:39;;;;;;;15.50;8.07;;;;;;;;;;6339285;28;20854;-62
2023/10/25 03:47:41;;;;;;;17.70;6.07;;;;;;;;;;6323653;28;20052;-62
2023/10/25 03:50:43;;;;;;;11.75;4.65;;;;;;;;;;6338410;28;20040;-62
2023/10/25 03:53:45;;;;;;;12.27;5.65;;;;;;;;;;6332042;28;20942;-63
2023/10/25 03:56:47;;;;;;;14.43;5.93;;;;;;;;;;6315603;28;20048;-62
2023/10/25 03:59:49;;;;;;;14.55;5.90;;;;;;;;;;6339774;28;20043;-62
2023/10/25 04:02:51;;;;;;;12.32;4.80;;;;;;;;;;6338556;28;20055;-62
2023/10/25 04:05:53;;;;;;;14.20;5.45;;;;;;;;;;6332652;28;20096;-62
2023/10/25 04:08:55;;;;;;;13.23;5.55;;;;;;;;;;6332167;28;20056;-63
2023/10/25 04:11:57;;;;;;;20.83;6.90;;;;;;;;;;6336286;28;20036;-63
2023/10/25 04:14:59;;;;;;;11.10;5.55;;;;;;;;;;6326561;28;20036;-64
2023/10/25 04:18:02;;;;;;;20.05;6.22;;;;;;;;;;6332722;28;20051;-64
2023/10/25 04:21:09;;;;;;;18.70;6.53;;;;;;;;;;6332460;28;20121;-63
2023/10/25 04:24:11;;;;;;;16.15;7.15;;;;;;;;;;6338085;28;20521;-64
2023/10/25 04:27:13;;;;;;;16.70;5.50;;;;;;;;;;6332470;28;20093;-64
2023/10/25 04:30:15;;;;;;;18.98;5.63;;;;;;;;;;6328301;27;20044;-64
2023/10/25 04:33:17;;;;;;;14.05;5.85;;;;;;;;;;6331435;28;20058;-64
2023/10/25 04:36:19;;;;;;;19.38;6.88;;;;;;;;;;6333163;28;20059;-65
2023/10/25 04:39:21;;;;;;;13.15;6.05;;;;;;;;;;6326695;28;20051;-64
2023/10/25 04:42:23;;;;;;;12.43;6.35;;;;;;;;;;6315260;28;20758;-64
2023/10/25 04:45:25;;;;;;;15.88;6.78;;;;;;;;;;6332174;28;20059;-64
2023/10/25 04:48:27;;;;;;;16.02;6.93;;;;;;;;;;6328026;28;20054;-64
2023/10/25 04:51:29;;;;;;;15.85;7.57;;;;;;;;;;6324523;28;20043;-64
2023/10/25 04:54:31;;;;;;;18.65;6.57;;;;;;;;;;6326982;28;20040;-65
2023/10/25 04:57:34;;;;;;;13.23;7.55;;;;;;;;;;6337198;28;20040;-65
2023/10/25 05:00:36;;;;;;;22.60;10.10;;;;;;;;;;6336079;28;20430;-62
2023/10/25 05:03:38;;;;;;;21.35;9.10;;;;;;;;;;6332795;28;20115;-63
2023/10/25 05:06:41;;;;;;;14.48;7.85;;;;;;;;;;6321485;28;20047;-63
2023/10/25 05:09:43;;;;;;;12.82;7.30;;;;;;;;;;6334326;28;20552;-64
2023/10/25 05:12:48;;;;;;;17.88;11.27;;;;;;;;;;6338924;27;20562;-64
2023/10/25 05:15:50;;;;;;;17.80;8.95;;;;;;;;;;6336025;27;20055;-64
2023/10/25 05:18:52;;;;;;;17.65;8.20;;;;;;;;;;6336894;28;20039;-64
2023/10/25 05:21:55;;;;;;;16.88;7.20;;;;;;;;;;6337091;28;20543;-63
2023/10/25 05:24:58;;;;;;;17.17;10.30;;;;;;;;;;6337568;28;20063;-64
2023/10/25 05:28:01;;;;;;;17.58;6.70;;;;;;;;;;6328006;28;20051;-63
2023/10/25 05:31:04;;;;;;;17.80;6.18;;;;;;;;;;6331007;28;20043;-63
2023/10/25 05:34:06;;;;;;;17.08;7.32;;;;;;;;;;6331405;28;20044;-64
2023/10/25 05:37:09;;;;;;;14.98;6.57;;;;;;;;;;6328393;28;20044;-64
2023/10/25 05:40:11;;;;;;;16.92;7.38;;;;;;;;;;6337043;27;20832;-63
2023/10/25 05:43:15;;;;;;;12.73;6.32;;;;;;;;;;6335715;28;20059;-63
2023/10/25 05:46:17;;;;;;;25.70;7.15;;;;;;;;;;6334754;28;20055;-63
2023/10/25 05:49:19;;;;;;;16.13;7.40;;;;;;;;;;6328510;28;20050;-63
2023/10/25 05:52:21;;;;;;;21.48;7.80;;;;;;;;;;6330243;28;20047;-63
2023/10/25 05:55:24;;;;;;;18.88;7.82;;;;;;;;;;6334145;28;20052;-63
2023/10/25 05:58:26;;;;;;;19.90;6.65;;;;;;;;;;6335736;28;20427;-63
2023/10/25 06:01:49;;;;;;;16.67;10.05;;;;;;;;;;6325635;28;20738;-63
2023/10/25 06:04:55;;;;;;;17.63;7.43;;;;;;;;;;6332210;28;20048;-63
2023/10/25 06:07:57;;;;;;;11.75;5.32;;;;;;;;;;6330477;28;20043;-63
2023/10/25 06:10:59;;;;;;;14.32;7.88;;;;;;;;;;6326168;28;20367;-63
2023/10/25 06:14:02;;;;;;;20.17;7.80;;;;;;;;;;6332364;27;20122;-63
2023/10/25 06:17:04;;;;;;;20.75;5.85;;;;;;;;;;6315857;28;20043;-63
2023/10/25 06:20:06;;;;;;;14.07;6.13;;;;;;;;;;6334305;28;20051;-63
2023/10/25 06:23:08;;;;;;;22.40;5.82;;;;;;;;;;6334440;28;20075;-63
2023/10/25 06:26:10;;;;;;;14.27;5.93;;;;;;;;;;6329438;28;20044;-63
2023/10/25 06:29:12;;;;;;;15.38;5.50;;;;;;;;;;6333610;28;20043;-64
2023/10/25 06:32:14;;;;;;;18.58;6.07;;;;;;;;;;6334806;28;20040;-64
2023/10/25 06:35:16;;;;;;;13.50;6.10;;;;;;;;;;6335150;28;20053;-63
2023/10/25 06:38:19;;;;;;;14.65;6.88;;;;;;;;;;6335385;28;20051;-63
2023/10/25 06:41:24;;;;;;;25.85;8.05;;;;;;;;;;6317657;28;20115;-63
2023/10/25 06:44:27;;;;;;;15.20;6.57;;;;;;;;;;6320718;28;20047;-63
2023/10/25 06:47:29;;;;;;;13.63;5.45;;;;;;;;;;6335338;28;20058;-64
2023/10/25 06:50:32;;;;;;;17.02;5.18;;;;;;;;;;6330813;28;20115;-64
2023/10/25 06:53:36;;;;;;;14.68;5.47;;;;;;;;;;6335215;28;20047;-64
2023/10/25 06:56:38;;;;;;;19.42;7.68;;;;;;;;;;6328051;28;20445;-64
2023/10/25 06:59:40;;;;;;;12.88;4.88;;;;;;;;;;6334421;28;20046;-64
2023/10/25 07:02:53;;;;;;;12.68;4.55;;;;;;;;;;6335222;28;20047;-65
2023/10/25 07:05:56;;;;;;;16.17;5.18;;;;;;;;;;6329020;28;20043;-65
2023/10/25 07:08:58;;;;;;;21.15;6.50;;;;;;;;;;6335602;28;20965;-64
2023/10/25 07:12:00;;;;;;;17.50;5.28;;;;;;;;;;6334881;28;20568;-63
2023/10/25 07:15:22;;;;;;;14.73;5.55;;;;;;;;;;6329906;28;20047;-64
2023/10/25 07:18:24;;;;;;;18.10;4.47;;;;;;;;;;6321112;28;20053;-65
2023/10/25 07:21:26;;;;;;;19.63;8.50;;;;;;;;;;6331806;28;20583;-64
2023/10/25 07:24:29;;;;;;;14.95;5.57;;;;;;;;;;6335143;28;20059;-64
2023/10/25 07:27:31;;;;;;;19.23;5.47;;;;;;;;;;6341660;28;20062;-64
2023/10/25 07:30:35;;;;;;;18.20;5.05;;;;;;;;;;6338915;28;20047;-64
2023/10/25 07:33:38;;;;;;;25.38;14.18;;;;;;;;;;6338208;28;20581;-64
2023/10/25 07:36:40;;;;;;;20.88;5.97;;;;;;;;;;6339708;28;20043;-64
2023/10/25 07:39:42;;;;;;;35.60;7.32;;;;;;;;;;6339561;28;20073;-64
2023/10/25 07:42:46;;;;;;;16.90;4.97;;;;;;;;;;6339228;28;20040;-64
2023/10/25 07:45:48;;;;;;;30.20;5.45;;;;;;;;;;6330488;28;20048;-64
2023/10/25 07:48:50;;;;;;;15.82;5.20;;;;;;;;;;6331114;28;20047;-64
2023/10/25 07:51:56;;;;;;;22.55;6.18;;;;;;;;;;6338307;28;20048;-64
2023/10/25 07:54:58;;;;;;;20.50;4.35;;;;;;;;;;6332854;28;20051;-64
2023/10/25 07:58:00;;;;;;;23.92;4.97;;;;;;;;;;6336287;28;20589;-64
2023/10/25 08:01:04;;;;;;;;;;;;;;;;;;6334090;28;20093;-64
2023/10/25 08:04:06;;;;;;;20.20;3.97;;;;;;;;;;6334797;27;19931;-64
2023/10/25 08:07:10;;;;;;;15.95;3.20;;;;;;;;;;6334158;27;20142;-64
2023/10/25 08:10:12;;;;;;;16.52;3.45;;;;;;;;;;6329488;28;20051;-64
2023/10/25 08:13:14;;;;;;;17.55;4.60;;;;;;;;;;6328584;28;20755;-64
2023/10/25 08:16:16;;;;;;;19.08;3.55;;;;;;;;;;6341250;27;20055;-65
2023/10/25 08:19:19;;;;;;;19.05;3.25;;;;;;;;;;6338196;28;20501;-65
2023/10/25 08:22:21;;;;;;;15.82;3.17;;;;;;;;;;6328876;28;20063;-64
2023/10/25 08:25:23;;;;;;;21.27;4.78;;;;;;;;;;6326664;27;20062;-64
2023/10/25 08:28:25;;;;;;;15.65;4.90;;;;;;;;;;6341083;27;20048;-65
2023/10/25 08:31:27;;;;;;;17.25;5.63;;;;;;;;;;6331558;27;20036;-64
2023/10/25 08:34:29;;;;;;;20.05;5.78;;;;;;;;;;6330167;27;20402;-63
2023/10/25 08:37:31;;;;;;;22.48;5.40;;;;;;;;;;6334890;27;20057;-63
2023/10/25 08:40:33;;;;;;;22.45;6.13;;;;;;;;;;6336212;28;20548;-63
2023/10/25 08:43:37;;;;;;;17.50;5.22;;;;;;;;;;6315384;28;20043;-65
2023/10/25 08:46:40;;;;;;;18.73;4.45;;;;;;;;;;6333785;28;20047;-64
2023/10/25 08:49:42;;;;;;;18.80;4.75;;;;;;;;;;6337973;27;20039;-64
2023/10/25 08:52:44;;;;;;;18.75;4.50;;;;;;;;;;6325282;28;20059;-63
2023/10/25 08:55:50;;;;;;;12.68;4.97;;;;;;;;;;6326975;28;20054;-64
2023/10/25 08:58:52;;;;;;;20.65;4.93;;;;;;;;;;6341803;27;20047;-64
2023/10/25 09:01:55;;;;;;;14.90;7.10;;;;;;;;;;6335283;28;20042;-64
2023/10/25 09:05:02;;;;;;;20.33;4.35;;;;;;;;;;6330628;27;20296;-64
2023/10/25 09:08:15;;;;;;;17.73;3.15;;;;;;;;;;6337814;27;20140;-64
2023/10/25 09:11:17;;;;;;;21.58;6.40;;;;;;;;;;6333853;28;20541;-64
2023/10/25 09:14:19;;;;;;;16.08;4.32;;;;;;;;;;6336071;28;20048;-64
2023/10/25 09:17:21;;;;;;;19.13;4.88;;;;;;;;;;6334666;27;20815;-64
2023/10/25 09:20:26;;;;;;;24.88;7.55;;;;;;;;;;6332929;28;20056;-64
2023/10/25 09:23:28;;;;;;;27.40;6.60;;;;;;;;;;6329844;28;20089;-63
2023/10/25 09:26:35;;;;;;;23.80;4.90;;;;;;;;;;6336056;28;20047;-63
2023/10/25 09:29:37;;;;;;;21.90;5.45;;;;;;;;;;6321508;28;20077;-65
2023/10/25 09:32:40;;;;;;;18.85;5.13;;;;;;;;;;6325164;28;20130;-64
2023/10/25 09:35:42;;;;;;;22.63;5.55;;;;;;;;;;6333417;27;20039;-65
2023/10/25 09:38:45;;;;;;;19.88;4.68;;;;;;;;;;6314258;28;20092;-68
2023/10/25 09:41:50;;;;;;;25.30;6.18;;;;;;;;;;6329892;28;20655;-64
2023/10/25 09:44:57;;;;;;;24.20;5.72;;;;;;;;;;6313733;28;20043;-65
2023/10/25 09:48:05;;;;;;;23.30;6.95;;;;;;;;;;6325748;27;20084;-64
2023/10/25 09:51:17;;;;;;;16.55;4.90;;;;;;;;;;6327719;28;20051;-64
2023/10/25 09:54:24;;;;;;;20.30;4.13;;;;;;;;;;6318973;28;20047;-64
2023/10/25 09:57:29;;;;;;;24.58;6.07;;;;;;;;;;6314820;28;20055;-64
2023/10/25 10:00:31;;;;;;;30.02;5.75;;;;;;;;;;6331131;28;20040;-64
2023/10/25 10:03:48;;;;;;;31.10;3.72;;;;;;;;;;6326012;28;20053;-65
2023/10/25 10:22:16;;;;;;;22.30;7.05;;;;;;;;;;6282300;27;1879918;-84
2023/10/25 10:25:50;;;;;;;24.20;7.53;;;;;;;;;;6324599;28;20071;-83
2023/10/25 10:28:53;;;;;;;25.50;5.93;;;;;;;;;;6321338;28;20040;-84
2023/10/25 10:31:56;;;;;;;19.05;4.10;;;;;;;;;;6294350;28;20091;-84
2023/10/25 10:34:59;;;;;;;24.58;6.05;;;;;;;;;;6273210;28;20094;-84
2023/10/25 10:38:03;;;;;;;26.75;7.55;;;;;;;;;;6271965;28;20044;-84
2023/10/25 10:41:07;;;;;;;;;;;;;;;;;;6271982;28;20097;-84
2023/10/25 10:44:11;;;;;;;30.85;5.05;;;;;;;;;;6284867;28;20476;-83
2023/10/25 10:47:16;;;;;;;34.72;7.80;;;;;;;;;;6279130;28;20055;-85
2023/10/25 10:50:21;;;;;;;36.33;9.30;;;;;;;;;;6262763;28;20051;-84
2023/10/25 10:53:24;;;;;;;35.50;8.25;;;;;;;;;;6254753;28;20135;-84
2023/10/25 10:56:26;;;;;;;31.60;7.97;;;;;;;;;;6284311;28;20049;-84
2023/10/25 10:59:29;;;;;;;31.85;5.75;;;;;;;;;;6288297;28;20371;-85
2023/10/25 11:02:37;;;;;;;38.55;5.03;;;;;;;;;;6275827;28;20133;-85
2023/10/25 11:05:40;;;;;;;30.67;7.80;;;;;;;;;;6254909;28;20364;-85
2023/10/25 11:08:43;;;;;;;43.45;13.02;;;;;;;;;;6272184;28;20051;-84
2023/10/25 11:11:45;;;;;;;27.35;7.10;;;;;;;;;;6261835;28;20071;-84
2023/10/25 11:14:48;;;;;;;42.15;6.95;;;;;;;;;;6253648;28;20434;-84
2023/10/25 11:17:53;;;;;;;73.20;33.53;;;;;;;;;;6272847;28;20056;-84
2023/10/25 11:20:59;;;;;;;76.10;41.47;;;;;;;;;;6291887;28;20048;-84
2023/10/25 11:24:06;;;;;;;26.80;8.30;;;;;;;;;;6263891;28;20139;-84
2023/10/25 11:27:17;;;;;;;31.50;7.38;;;;;;;;;;6278984;28;20378;-84
2023/10/25 11:30:21;;;;;;;34.70;14.20;;;;;;;;;;6260116;28;20187;-84
2023/10/25 11:33:24;;;;;;;59.35;19.27;;;;;;;;;;6288883;28;20055;-83
2023/10/25 11:36:29;;;;;;;30.15;7.00;;;;;;;;;;6309129;28;20127;-84
2023/10/25 11:39:34;;;;;;;32.30;6.53;;;;;;;;;;6257780;28;20044;-84
2023/10/25 11:42:37;;;;;;;128.20;64.75;;;;;;;;;;6273642;28;20492;-84
2023/10/25 11:45:40;;;;;;;247.55;138.00;;;;;;;;;;6243864;28;20049;-84
2023/10/25 11:48:43;;;;;;;58.78;22.00;;;;;;;;;;6260458;28;20049;-84
2023/10/25 11:51:47;;;;;;;268.00;154.45;;;;;;;;;;6264898;28;20141;-84
2023/10/25 11:54:55;;;;;;;44.83;12.25;;;;;;;;;;6289299;28;20045;-84
2023/10/25 11:57:57;;;;;;;155.18;79.57;;;;;;;;;;6284790;28;20116;-84
2023/10/25 12:01:04;;;;;;;32.85;5.60;;;;;;;;;;6265851;28;20037;-84
2023/10/25 12:04:15;;;;;;;68.15;24.73;;;;;;;;;;6281187;28;20041;-84
2023/10/25 12:07:20;;;;;;;21.08;3.50;;;;;;;;;;6262899;28;20064;-84
2023/10/25 12:10:24;;;;;;;38.67;6.68;;;;;;;;;;6266061;28;20052;-84
2023/10/25 12:13:27;;;;;;;24.38;7.75;;;;;;;;;;6262064;28;20500;-84
2023/10/25 12:16:30;;;;;;;23.27;5.45;;;;;;;;;;6250978;28;20041;-84
2023/10/25 12:19:36;;;;;;;30.70;6.22;;;;;;;;;;6296261;28;20051;-82
2023/10/25 12:22:39;;;;;;;29.27;6.00;;;;;;;;;;6277849;28;20060;-84
2023/10/25 12:25:47;;;;;;;29.85;4.75;;;;;;;;;;6266960;28;20048;-84
2023/10/25 12:28:50;;;;;;;30.50;5.10;;;;;;;;;;6257219;28;20045;-83
2023/10/25 12:31:52;;;;;;;39.42;6.25;;;;;;;;;;6266101;28;20464;-82
2023/10/25 12:34:55;;;;;;;24.75;3.97;;;;;;;;;;6274372;28;20041;-82
2023/10/25 12:38:00;;;;;;;24.92;4.47;;;;;;;;;;6284703;28;20075;-83
2023/10/25 12:41:03;;;;;;;27.98;5.60;;;;;;;;;;6267910;28;20097;-83
2023/10/25 12:44:08;;;;;;;33.05;8.07;;;;;;;;;;6283118;28;20060;-83
2023/10/25 12:47:10;;;;;;;41.97;9.00;;;;;;;;;;6267301;28;20135;-83
2023/10/25 12:50:13;;;;;;;26.60;6.57;;;;;;;;;;6238378;28;20520;-83
2023/10/25 12:53:15;;;;;;;34.05;7.65;;;;;;;;;;6250851;28;20045;-83
2023/10/25 12:56:17;;;;;;;26.23;7.07;;;;;;;;;;6263620;28;20430;-83
2023/10/25 12:59:19;;;;;;;41.60;11.77;;;;;;;;;;6268536;28;20055;-84
2023/10/25 13:02:22;;;;;;;33.78;6.28;;;;;;;;;;6253211;28;20052;-82
2023/10/25 13:05:28;;;;;;;30.00;6.05;;;;;;;;;;6284100;28;20048;-83
2023/10/25 13:08:31;;;;;;;27.45;7.38;;;;;;;;;;6242316;28;20064;-82
2023/10/25 13:11:34;;;;;;;38.13;8.13;;;;;;;;;;6259983;28;20036;-83
2023/10/25 13:14:37;;;;;;;30.70;7.13;;;;;;;;;;6296911;28;20132;-83
2023/10/25 13:17:41;;;;;;;28.58;6.78;;;;;;;;;;6304905;28;20045;-83
2023/10/25 13:20:45;;;;;;;;;;;;;;;;;;6309012;28;20044;-82
2023/10/25 13:23:50;;;;;;;28.58;6.78;;;;;;;;;;6277853;28;19984;-82
2023/10/25 13:26:54;;;;;;;30.52;6.35;;;;;;;;;;6281545;28;20040;-83
2023/10/25 13:30:00;;;;;;;36.17;8.52;;;;;;;;;;6302393;28;20099;-83
2023/10/25 13:33:02;;;;;;;34.92;8.35;;;;;;;;;;6254089;28;20548;-83
2023/10/25 13:36:05;;;;;;;47.20;9.18;;;;;;;;;;6278947;28;20134;-84
2023/10/25 13:39:11;;;;;;;33.53;6.55;;;;;;;;;;6248908;28;20115;-84
2023/10/25 13:42:13;;;;;;;28.77;8.55;;;;;;;;;;6288420;28;20043;-85
2023/10/25 13:45:15;;;;;;;42.40;7.00;;;;;;;;;;6314963;28;20394;-85
2023/10/25 13:48:18;;;;;;;41.28;5.60;;;;;;;;;;6298528;28;20045;-83
2023/10/25 13:51:24;;;;;;;41.75;5.50;;;;;;;;;;6251472;28;20040;-84
2023/10/25 13:54:27;;;;;;;33.30;6.22;;;;;;;;;;6252058;28;20056;-84
2023/10/25 13:57:30;;;;;;;35.05;6.55;;;;;;;;;;6255087;28;20041;-84
2023/10/25 14:00:35;;;;;;;34.35;7.30;;;;;;;;;;6270680;28;20496;-84
2023/10/25 14:03:37;;;;;;;42.17;7.95;;;;;;;;;;6242773;28;20040;-84
2023/10/25 14:06:40;;;;;;;35.17;7.90;;;;;;;;;;6249212;28;20042;-84
2023/10/25 14:09:46;;;;;;;50.08;8.60;;;;;;;;;;6251247;28;20045;-83
2023/10/25 14:12:48;;;;;;;42.40;8.15;;;;;;;;;;6280027;28;20855;-83
2023/10/25 14:15:51;;;;;;;51.03;9.13;;;;;;;;;;6257795;28;20131;-84
2023/10/25 14:18:53;;;;;;;38.42;7.22;;;;;;;;;;6238403;28;20061;-83
2023/10/25 14:21:55;;;;;;;31.30;7.40;;;;;;;;;;6248898;28;20071;-82
2023/10/25 14:24:58;;;;;;;43.53;8.93;;;;;;;;;;6252337;28;20422;-83
2023/10/25 14:28:00;;;;;;;44.67;6.43;;;;;;;;;;6283428;28;20141;-83
2023/10/25 14:31:03;;;;;;;33.83;4.50;;;;;;;;;;6244131;28;20076;-83
2023/10/25 14:34:07;;;;;;;41.70;9.52;;;;;;;;;;6249584;28;20048;-83
2023/10/25 14:37:10;;;;;;;41.00;6.45;;;;;;;;;;6248005;28;20570;-83
2023/10/25 14:40:12;;;;;;;40.38;6.63;;;;;;;;;;6259139;28;20067;-83
2023/10/25 14:43:26;;;;;;;30.30;6.25;;;;;;;;;;6259842;28;20048;-83
2023/10/25 14:46:33;;;;;;;49.72;7.93;;;;;;;;;;6290241;28;20075;-83
2023/10/25 14:49:38;;;;;;;44.92;9.90;;;;;;;;;;6315785;28;20035;-83
2023/10/25 14:52:53;;;;;;;45.90;7.25;;;;;;;;;;6287030;28;20033;-83
2023/10/25 14:55:55;;;;;;;43.13;7.85;;;;;;;;;;6293214;28;20041;-83
2023/10/25 14:58:57;;;;;;;46.35;9.05;;;;;;;;;;6276522;28;20049;-83
2023/10/25 15:01:59;;;;;;;45.25;8.88;;;;;;;;;;6262486;28;20033;-82
2023/10/25 15:05:02;;;;;;;27.35;4.40;;;;;;;;;;6270337;28;20036;-83
2023/10/25 15:08:04;;;;;;;31.55;6.07;;;;;;;;;;6276902;28;20047;-83
2023/10/25 15:11:07;;;;;;;30.25;6.63;;;;;;;;;;6270257;28;20052;-83
2023/10/25 15:14:09;;;;;;;29.92;5.40;;;;;;;;;;6285987;28;20095;-84
2023/10/25 15:17:12;;;;;;;30.80;4.20;;;;;;;;;;6260774;28;20060;-84
2023/10/25 15:20:15;;;;;;;37.17;5.72;;;;;;;;;;6274487;28;20048;-83
2023/10/25 15:23:21;;;;;;;28.38;3.53;;;;;;;;;;6277334;28;20051;-83
2023/10/25 15:26:23;;;;;;;30.52;4.35;;;;;;;;;;6258603;28;20051;-83
2023/10/25 15:29:26;;;;;;;40.60;10.80;;;;;;;;;;6284700;28;20067;-84
2023/10/25 15:32:28;;;;;;;35.85;7.75;;;;;;;;;;6265502;28;20052;-84
2023/10/25 15:35:34;;;;;;;39.08;7.85;;;;;;;;;;6263885;28;20041;-91
2023/10/25 15:38:37;;;;;;;46.20;11.35;;;;;;;;;;6256667;28;20606;-89
2023/10/25 15:41:40;;;;;;;34.95;7.35;;;;;;;;;;6243801;28;20079;-86
2023/10/25 15:44:42;;;;;;;32.22;7.95;;;;;;;;;;6282226;28;20044;-86
2023/10/25 15:47:45;;;;;;;26.05;5.78;;;;;;;;;;6247513;28;20457;-83
2023/10/25 15:50:49;;;;;;;31.35;5.55;;;;;;;;;;6237391;28;20056;-86
2023/10/25 15:53:52;;;;;;;34.33;8.98;;;;;;;;;;6241764;28;20045;-84
2023/10/25 15:56:55;;;;;;;38.75;8.73;;;;;;;;;;6263524;28;20124;-84
2023/10/25 15:59:58;;;;;;;33.03;7.43;;;;;;;;;;6248057;28;20753;-84
2023/10/25 16:03:00;;;;;;;40.42;8.05;;;;;;;;;;6265518;28;20559;-84
2023/10/25 16:06:03;;;;;;;33.38;8.45;;;;;;;;;;6240415;28;20053;-85
2023/10/25 16:09:08;;;;;;;30.92;10.02;;;;;;;;;;6236868;28;20059;-87
2023/10/25 16:12:11;;;;;;;40.28;5.80;;;;;;;;;;6211361;28;20724;-86
2023/10/25 16:15:16;;;;;;;41.47;11.27;;;;;;;;;;6246523;28;20049;-88
2023/10/25 16:18:20;;;;;;;37.63;9.90;;;;;;;;;;6237822;28;20133;-84
2023/10/25 16:21:23;;;;;;;40.22;9.50;;;;;;;;;;6245100;28;20041;-84
2023/10/25 16:24:25;;;;;;;43.17;13.48;;;;;;;;;;6273462;28;20048;-83
2023/10/25 16:27:28;;;;;;;36.90;9.73;;;;;;;;;;6238462;28;20695;-82
2023/10/25 16:30:32;;;;;;;39.42;11.32;;;;;;;;;;6251722;28;20062;-82
2023/10/25 16:33:35;;;;;;;37.97;8.57;;;;;;;;;;6255366;28;20562;-83
2023/10/25 16:36:39;;;;;;;37.33;8.32;;;;;;;;;;6271417;28;20040;-83
2023/10/25 16:39:55;;;;;;;33.75;8.57;;;;;;;;;;6263224;28;20044;-82
2023/10/25 16:43:04;;;;;;;35.55;8.57;;;;;;;;;;6243304;28;20044;-84
2023/10/25 16:46:13;;;;;;;30.60;7.65;;;;;;;;;;6258765;28;20049;-84
2023/10/25 16:49:17;;;;;;;34.33;9.20;;;;;;;;;;6246816;28;20469;-84
2023/10/25 16:52:20;;;;;;;32.22;8.07;;;;;;;;;;6258146;28;20041;-83
2023/10/25 16:55:26;;;;;;;32.78;7.72;;;;;;;;;;6245506;28;20052;-84
2023/10/25 16:58:31;;;;;;;37.65;7.80;;;;;;;;;;6269128;28;20157;-83
2023/10/25 17:01:33;;;;;;;;;;;;;;;;;;6265873;28;20033;-83
2023/10/25 17:04:35;;;;;;;35.88;9.52;;;;;;;;;;6286425;28;19924;-83
2023/10/25 17:07:38;;;;;;;35.65;9.73;;;;;;;;;;6270536;28;20067;-83
2023/10/25 17:10:40;;;;;;;34.00;8.48;;;;;;;;;;6261815;28;20449;-83
2023/10/25 17:13:42;;;;;;;39.08;8.27;;;;;;;;;;6273951;28;20111;-84
2023/10/25 17:16:45;;;;;;;30.77;6.63;;;;;;;;;;6256274;28;20036;-83
2023/10/25 17:19:47;;;;;;;37.45;8.25;;;;;;;;;;6270879;28;20441;-82
2023/10/25 17:22:49;;;;;;;26.48;8.05;;;;;;;;;;6242932;28;20618;-84
2023/10/25 17:25:54;;;;;;;39.42;8.32;;;;;;;;;;6242407;28;20634;-83
2023/10/25 17:28:58;;;;;;;35.13;8.88;;;;;;;;;;6242695;28;20037;-83
2023/10/25 17:32:00;;;;;;;33.15;9.25;;;;;;;;;;6268215;28;20128;-85
2023/10/25 17:35:03;;;;;;;28.55;9.90;;;;;;;;;;6277359;28;20546;-83
2023/10/25 17:38:06;;;;;;;26.70;8.63;;;;;;;;;;6246968;28;20107;-83
2023/10/25 17:41:09;;;;;;;31.58;7.40;;;;;;;;;;6279963;28;20032;-84
2023/10/25 17:44:12;;;;;;;36.88;9.10;;;;;;;;;;6275881;28;20060;-84
2023/10/25 17:47:14;;;;;;;36.25;9.60;;;;;;;;;;6263203;28;20041;-84
2023/10/25 17:50:23;;;;;;;37.00;9.57;;;;;;;;;;6274988;28;20037;-82
2023/10/25 17:53:25;;;;;;;39.97;10.63;;;;;;;;;;6300291;28;20063;-84
2023/10/25 17:56:28;;;;;;;38.13;9.15;;;;;;;;;;6306415;28;20040;-83
2023/10/25 17:59:33;;;;;;;33.40;9.70;;;;;;;;;;6273674;28;20052;-83
2023/10/25 18:02:35;;;;;;;26.17;7.70;;;;;;;;;;6284031;28;20507;-84
2023/10/25 18:05:40;;;;;;;23.98;6.47;;;;;;;;;;6245514;28;20040;-84
2023/10/25 18:08:45;;;;;;;33.30;7.63;;;;;;;;;;6257449;28;20056;-84
2023/10/25 18:11:47;;;;;;;34.20;7.68;;;;;;;;;;6276405;28;20445;-83
2023/10/25 18:14:56;;;;;;;32.50;6.60;;;;;;;;;;6265618;28;20139;-85
2023/10/25 18:17:58;;;;;;;37.30;7.43;;;;;;;;;;6253066;28;20654;-84
2023/10/25 18:21:01;;;;;;;36.88;10.77;;;;;;;;;;6260690;28;20041;-86